Centerdale, Iowa
Current Conditions -  °F | °C
As of 6:52 AM on Monday 22 Dec 2014 (Local Time) from KIOW Reporting Station
Overcast Overcast  
Wind Chill: -1°   Ceiling: 2900
Heat Index:   Visibility: 9mi
Dew Point:   Wind: 8mph
Humidity: 86%   Direction: 120°ESE
Pressure: 29.77"   Gusts: NA
Location:  41.5542°N, 91.2913°W
Report Text: KIOW 221252Z AUTO 12007KT 9SM OVC029 03/01 A2977 RMK AO2 SLP085 T00280006
Loading
Personal Weather Stations






























Interactive Weather Map New forecast layout! Learn more

10-Day Weather Forecast

Advertisements
Track Severe Weather on mobile